Time;durP1;ratioP1;P1;durP2;ratioP2;P2;SDS_P1;SDS_P2;PMS_P1;PMS_P2;Temp;Humidity;BMP_temperature;BMP_pressure;BME280_temperature;BME280_humidity;BME280_pressure;Samples;Min_cycle;Max_cycle;Signal;HPM_P1;HPM_P2
2023/02/19 00:01:28;;;;;;;;;;;;;;;7.68;82.88;100867.36;1949464;74;20108;-43
2023/02/19 00:03:57;;;;;;;;;;;;;;;7.68;82.85;100866.90;1949603;74;20425;-45
2023/02/19 00:06:26;;;;;;;;;;;;;;;7.67;82.77;100868.24;1938482;74;20413;-43
2023/02/19 00:08:54;;;;;;;;;;;;;;;7.64;82.80;100871.81;1939775;74;20382;-42
2023/02/19 00:11:23;;;;;;;;;;;;;;;7.64;82.78;100872.27;1923610;75;20142;-43
2023/02/19 00:13:52;;;;;;;;;;;;;;;7.61;82.80;100871.88;1952709;73;20120;-43
2023/02/19 00:16:28;;;;;;;;;;;;;;;7.61;83.03;100864.02;1954824;73;20363;-44
2023/02/19 00:18:57;;;;;;;;;;;;;;;7.60;83.17;100856.19;1954834;73;20144;-43
2023/02/19 00:21:25;;;;;;;;;;;;;;;7.60;83.16;100867.55;1952300;73;20146;-43
2023/02/19 00:23:53;;;;;;;;;;;;;;;7.61;83.08;100865.78;1933257;74;20142;-47
2023/02/19 00:26:21;;;;;;;;;;;;;;;7.63;83.11;100865.30;1928779;74;20150;-43
2023/02/19 00:28:50;;;;;;;;;;;;;;;7.63;83.03;100858.28;1924291;74;20391;-42
2023/02/19 00:31:22;;;;;;;;;;;;;;;7.64;83.10;100856.55;1923640;74;20187;-41
2023/02/19 00:33:52;;;;;;;;;;;;;;;7.64;83.11;100845.61;1937803;74;20175;-43
2023/02/19 00:36:20;;;;;;;;;;;;;;;7.67;83.16;100835.48;1925615;74;20383;-42
2023/02/19 00:38:48;;;;;;;;;;;;;;;7.70;83.23;100827.09;1903197;74;20107;-43
2023/02/19 00:41:20;;;;;;;;;;;;;;;7.71;83.24;100827.52;1933561;74;20446;-43
2023/02/19 00:43:52;;;;;;;;;;;;;;;7.72;83.34;100818.73;1927000;74;20199;-44
2023/02/19 00:46:22;;;;;;;;;;;;;;;7.74;83.45;100814.31;1923742;74;20105;-44
2023/02/19 00:48:51;;;;;;;;;;;;;;;7.77;83.42;100823.02;1933949;74;20142;-45
2023/02/19 00:51:20;;;;;;;;;;;;;;;7.77;83.32;100820.41;1938104;74;20100;-44
2023/02/19 00:53:47;;;;;;;;;;;;;;;7.77;83.32;100837.44;1931551;74;20142;-45
2023/02/19 00:56:15;;;;;;;;;;;;;;;7.77;83.30;100819.09;1928058;74;20194;-44
2023/02/19 00:58:43;;;;;;;;;;;;;;;7.77;83.25;100806.84;1949523;74;20112;-43
2023/02/19 01:01:11;;;;;;;;;;;;;;;7.77;83.20;100808.61;1948361;74;20147;-42
2023/02/19 01:03:39;;;;;;;;;;;;;;;7.78;83.10;100822.11;1949512;74;20112;-42
2023/02/19 01:06:08;;;;;;;;;;;;;;;7.78;83.01;100806.37;1949554;74;20590;-44
2023/02/19 01:08:36;;;;;;;;;;;;;;;7.78;82.93;100801.98;1949483;74;20148;-43
2023/02/19 01:11:05;;;;;;;;;;;;;;;7.80;82.82;100800.64;1942333;74;20218;-44
2023/02/19 01:13:33;;;;;;;;;;;;;;;7.79;82.69;100798.48;1941108;74;20175;-40
2023/02/19 01:16:09;;;;;;;;;;;;;;;7.79;82.64;100787.14;1949636;74;20116;-41
2023/02/19 01:18:37;;;;;;;;;;;;;;;7.79;82.59;100785.83;1949885;73;20124;-42
2023/02/19 01:21:06;;;;;;;;;;;;;;;7.79;82.64;100775.34;1965984;73;20108;-41
2023/02/19 01:23:33;;;;;;;;;;;;;;;7.77;82.63;100771.91;1966049;73;20146;-41
2023/02/19 01:26:03;;;;;;;;;;;;;;;7.78;82.77;100773.61;1965747;73;20150;-43
2023/02/19 01:28:30;;;;;;;;;;;;;;;7.78;82.69;100778.85;1963232;73;20115;-43
2023/02/19 01:31:02;;;;;;;;;;;;;;;7.77;82.68;100756.19;1963499;73;20100;-42
2023/02/19 01:33:30;;;;;;;;;;;;;;;7.76;82.64;100779.34;1962423;73;20103;-44
2023/02/19 01:35:59;;;;;;;;;;;;;;;7.73;82.63;100777.22;1963469;73;20103;-43
2023/02/19 01:38:27;;;;;;;;;;;;;;;7.74;82.61;100779.38;1963498;73;20123;-41
2023/02/19 01:40:59;;;;;;;;;;;;;;;7.71;82.56;100770.31;1963567;73;20138;-40
2023/02/19 01:43:27;;;;;;;;;;;;;;;7.69;82.54;100774.70;1964425;73;20221;-41
2023/02/19 01:45:54;;;;;;;;;;;;;;;7.66;82.58;100769.11;1965877;73;20111;-44
2023/02/19 01:48:30;;;;;;;;;;;;;;;7.66;82.53;100778.28;1965215;73;20116;-43
2023/02/19 01:51:02;;;;;;;;;;;;;;;7.66;82.49;100778.28;1965121;73;20105;-46
2023/02/19 01:53:31;;;;;;;;;;;;;;;7.70;82.38;100773.36;1963644;73;20109;-44
2023/02/19 01:56:00;;;;;;;;;;;;;;;7.71;82.29;100771.16;1964581;73;20096;-44
2023/02/19 01:58:29;;;;;;;;;;;;;;;7.72;82.26;100761.08;1963511;73;20358;-44
2023/02/19 02:00:58;;;;;;;;;;;;;;;7.76;82.24;100768.87;1963798;73;20190;-44
2023/02/19 02:03:25;;;;;;;;;;;;;;;7.77;82.22;100765.36;1965134;73;20154;-44
2023/02/19 02:05:57;;;;;;;;;;;;;;;7.77;82.24;100761.42;1964782;73;20147;-44
2023/02/19 02:11:11;;;;;;;;;;;;;;;7.79;82.14;100774.89;1963595;73;20408;-46
2023/02/19 02:13:40;;;;;;;;;;;;;;;7.78;82.06;100778.85;1931056;74;20114;-46
2023/02/19 02:16:26;;;;;;;;;;;;;;;7.79;82.05;100783.21;1963054;73;20141;-44
2023/02/19 02:19:04;;;;;;;;;;;;;;;7.78;82.13;100784.09;1957486;73;20117;-44
2023/02/19 02:21:49;;;;;;;;;;;;;;;7.77;82.25;100761.42;1923165;74;20144;-44
2023/02/19 02:24:19;;;;;;;;;;;;;;;7.76;82.36;100778.89;1905480;74;20118;-44
2023/02/19 02:27:04;;;;;;;;;;;;;;;7.73;82.40;100782.47;1936928;74;20548;-44
2023/02/19 02:29:33;;;;;;;;;;;;;;;7.73;82.43;100782.47;1948985;74;20151;-44
2023/02/19 02:32:02;;;;;;;;;;;;;;;7.74;82.52;100782.86;1878202;74;20119;-48
2023/02/19 02:34:32;;;;;;;;;;;;;;;7.73;82.67;100764.12;1938524;74;20119;-48
2023/02/19 02:37:01;;;;;;;;;;;;;;;7.72;82.71;100775.48;1915390;74;20140;-44
2023/02/19 02:39:31;;;;;;;;;;;;;;;7.72;82.81;100770.25;1948941;74;20147;-45
2023/02/19 02:48:02;;;;;;;;;;;;;;;7.72;82.79;100785.97;1905655;74;20147;-41
2023/02/19 02:50:03;;;;;;;;;;;;;;;7.71;82.83;100781.65;1929391;74;20436;-42
2023/02/19 02:55:02;;;;;;;;;;;;;;;7.70;82.92;100781.23;1939249;74;20144;-40
2023/02/19 02:57:30;;;;;;;;;;;;;;;7.71;82.94;100766.38;1932883;74;20102;-42
2023/02/19 02:59:58;;;;;;;;;;;;;;;7.71;83.06;100771.16;1924935;75;20118;-41
2023/02/19 03:02:27;;;;;;;;;;;;;;;7.69;83.10;100766.42;1927578;74;20145;-41
2023/02/19 03:08:04;;;;;;;;;;;;;;;7.73;83.04;100769.36;1903466;74;20107;-42
2023/02/19 03:10:43;;;;;;;;;;;;;;;7.73;83.11;100777.22;1924531;74;20248;-42
2023/02/19 03:21:18;;;;;;;;;;;;;;;7.70;83.07;100778.61;1930551;74;20152;-41
2023/02/19 03:26:33;;;;;;;;;;;;;;;7.70;83.16;100774.67;1930915;74;20110;-42
2023/02/19 03:31:49;;;;;;;;;;;;;;;7.69;83.10;100784.77;1930860;74;20372;-40
2023/02/19 03:34:18;;;;;;;;;;;;;;;7.68;83.03;100795.28;1930910;74;20448;-40
2023/02/19 03:36:48;;;;;;;;;;;;;;;7.66;83.12;100791.39;1929593;74;20169;-41
2023/02/19 03:39:18;;;;;;;;;;;;;;;7.65;83.15;100790.97;1929150;74;20149;-41
2023/02/19 03:41:54;;;;;;;;;;;;;;;7.67;83.12;100780.45;1929038;74;20244;-43
2023/02/19 03:44:26;;;;;;;;;;;;;;;7.68;83.06;100796.59;1928833;74;20118;-42
2023/02/19 03:47:02;;;;;;;;;;;;;;;7.67;82.94;100786.57;1927913;74;20118;-44
2023/02/19 03:49:29;;;;;;;;;;;;;;;7.69;82.94;100798.30;1928783;74;20114;-44
2023/02/19 03:52:02;;;;;;;;;;;;;;;7.68;82.97;100786.96;1926204;73;20141;-45
2023/02/19 03:54:31;;;;;;;;;;;;;;;7.68;82.93;100785.66;1929196;74;20098;-39
2023/02/19 03:57:00;;;;;;;;;;;;;;;7.67;82.87;100782.64;1929304;74;20136;-41
2023/02/19 03:59:46;;;;;;;;;;;;;;;7.66;82.83;100771.73;1928716;74;20145;-41
2023/02/19 04:02:15;;;;;;;;;;;;;;;7.65;82.84;100773.92;1940394;73;20114;-43
2023/02/19 04:04:45;;;;;;;;;;;;;;;7.65;82.75;100780.48;1940290;73;20106;-38
2023/02/19 04:07:14;;;;;;;;;;;;;;;7.66;82.76;100785.30;1929447;74;20110;-41
2023/02/19 04:09:43;;;;;;;;;;;;;;;7.66;82.72;100786.61;1930232;74;20136;-40
2023/02/19 04:12:14;;;;;;;;;;;;;;;7.64;82.80;100777.47;1928571;74;20292;-39
2023/02/19 04:14:48;;;;;;;;;;;;;;;7.66;82.80;100788.77;1929039;74;20118;-40
2023/02/19 04:17:36;;;;;;;;;;;;;;;7.64;82.82;100781.40;1930732;74;20141;-43
2023/02/19 04:20:05;;;;;;;;;;;;;;;7.63;82.81;100780.97;1909354;74;20183;-40
2023/02/19 04:22:34;;;;;;;;;;;;;;;7.61;82.75;100785.40;1923477;75;20424;-41
2023/02/19 04:25:02;;;;;;;;;;;;;;;7.60;82.72;100783.70;1944261;73;20338;-40
2023/02/19 04:27:30;;;;;;;;;;;;;;;7.59;82.63;100783.73;1972341;73;20363;-41
2023/02/19 04:29:57;;;;;;;;;;;;;;;7.58;82.58;100789.43;1972182;73;20155;-41
2023/02/19 04:32:25;;;;;;;;;;;;;;;7.56;82.62;100787.27;1972121;73;20112;-41
2023/02/19 04:34:53;;;;;;;;;;;;;;;7.54;82.55;100793.00;1972212;73;20396;-40
2023/02/19 04:37:21;;;;;;;;;;;;;;;7.51;82.48;100797.89;1972110;73;20111;-40
2023/02/19 04:39:48;;;;;;;;;;;;;;;7.47;82.49;100791.02;1972214;73;20120;-42
2023/02/19 04:42:16;;;;;;;;;;;;;;;7.47;82.61;100794.05;1972146;73;20111;-40
2023/02/19 04:44:44;;;;;;;;;;;;;;;7.46;82.66;100796.28;1972160;73;20142;-42
2023/02/19 04:47:12;;;;;;;;;;;;;;;7.44;82.63;100798.94;1972114;73;20101;-41
2023/02/19 04:49:39;;;;;;;;;;;;;;;7.43;82.62;100801.59;1972051;73;20146;-41
2023/02/19 04:52:07;;;;;;;;;;;;;;;7.43;82.63;100802.91;1972097;73;20154;-41
2023/02/19 04:54:35;;;;;;;;;;;;;;;7.45;82.66;100816.81;1969773;73;20139;-42
2023/02/19 04:57:03;;;;;;;;;;;;;;;7.49;82.59;100810.17;1971678;73;20116;-45
2023/02/19 04:59:30;;;;;;;;;;;;;;;7.50;82.55;100806.63;1972154;73;20100;-43
2023/02/19 05:01:58;;;;;;;;;;;;;;;7.53;82.46;100812.27;1971997;73;20115;-45
2023/02/19 05:04:26;;;;;;;;;;;;;;;7.54;82.37;100812.23;1972114;73;20204;-41
2023/02/19 05:06:54;;;;;;;;;;;;;;;7.56;82.28;100812.16;1972251;73;20108;-41
2023/02/19 05:09:21;;;;;;;;;;;;;;;7.57;82.25;100817.83;1955291;73;20118;-43
2023/02/19 05:11:49;;;;;;;;;;;;;;;7.61;82.14;100822.09;1933120;74;20188;-40
2023/02/19 05:14:17;;;;;;;;;;;;;;;7.67;82.09;100821.06;1953431;73;20116;-41
2023/02/19 05:16:44;;;;;;;;;;;;;;;7.70;81.99;100819.23;1971947;73;20120;-42
2023/02/19 05:19:12;;;;;;;;;;;;;;;7.72;81.85;100826.59;1970244;73;20206;-42
2023/02/19 05:21:40;;;;;;;;;;;;;;;7.78;81.77;100826.04;1956039;72;20230;-42
2023/02/19 05:24:08;;;;;;;;;;;;;;;7.83;81.67;100828.09;1950120;73;20296;-45
2023/02/19 05:26:36;;;;;;;;;;;;;;;7.88;81.54;100831.47;1949229;73;20226;-46
2023/02/19 05:29:04;;;;;;;;;;;;;;;7.91;81.45;100832.67;1951286;73;20159;-42
2023/02/19 05:31:34;;;;;;;;;;;;;;;7.96;81.22;100833.41;1950560;73;20458;-43
2023/02/19 05:34:02;;;;;;;;;;;;;;;8.00;81.02;100838.98;1951793;73;20498;-40
2023/02/19 05:36:30;;;;;;;;;;;;;;;8.03;80.78;100832.81;1951336;73;20509;-46
2023/02/19 05:38:58;;;;;;;;;;;;;;;8.06;80.60;100824.41;1951259;73;20163;-43
2023/02/19 05:41:27;;;;;;;;;;;;;;;8.11;80.50;100832.14;1951273;73;20104;-46
2023/02/19 05:43:55;;;;;;;;;;;;;;;8.16;80.44;100825.47;1950691;73;20231;-45
2023/02/19 05:46:24;;;;;;;;;;;;;;;8.19;80.22;100833.23;1950657;73;20199;-47
2023/02/19 05:48:52;;;;;;;;;;;;;;;8.22;80.19;100820.90;1951171;73;20234;-41
2023/02/19 05:51:21;;;;;;;;;;;;;;;8.25;80.10;100822.59;1951862;73;20250;-42
2023/02/19 05:53:50;;;;;;;;;;;;;;;8.30;79.95;100828.58;1952182;73;20382;-43
2023/02/19 05:56:19;;;;;;;;;;;;;;;8.33;79.88;100828.47;1951134;73;20160;-43
2023/02/19 05:58:46;;;;;;;;;;;;;;;8.38;79.73;100823.95;1950038;73;20100;-46
2023/02/19 06:01:16;;;;;;;;;;;;;;;8.44;79.63;100829.05;1948692;73;20112;-45
2023/02/19 06:03:43;;;;;;;;;;;;;;;8.50;79.54;100838.08;1950630;73;20223;-45
2023/02/19 06:06:15;;;;;;;;;;;;;;;8.58;79.45;100831.75;1951786;73;20151;-41
2023/02/19 06:08:42;;;;;;;;;;;;;;;8.63;79.30;100824.58;1949678;73;20250;-46
2023/02/19 06:11:10;;;;;;;;;;;;;;;8.72;79.12;100837.43;1951457;73;20186;-45
2023/02/19 06:13:38;;;;;;;;;;;;;;;8.81;79.02;100847.66;1951110;73;20230;-42
2023/02/19 06:16:07;;;;;;;;;;;;;;;8.88;78.82;100847.03;1949031;73;20260;-40
2023/02/19 06:18:34;;;;;;;;;;;;;;;8.95;78.70;100847.72;1948546;73;20387;-42
2023/02/19 06:21:03;;;;;;;;;;;;;;;9.04;78.63;100841.72;1946503;73;20250;-42
2023/02/19 06:23:30;;;;;;;;;;;;;;;9.12;78.37;100838.00;1936163;74;20112;-41
2023/02/19 06:26:05;;;;;;;;;;;;;;;9.14;78.20;100830.92;1945094;74;20449;-43
2023/02/19 06:28:33;;;;;;;;;;;;;;;9.11;77.91;100821.39;1934863;74;20373;-42
2023/02/19 06:31:01;;;;;;;;;;;;;;;9.08;77.84;100828.04;1923667;74;20118;-41
2023/02/19 06:33:29;;;;;;;;;;;;;;;9.05;77.75;100822.41;1925986;74;20180;-44
2023/02/19 06:36:00;;;;;;;;;;;;;;;9.03;77.73;100822.91;1928637;74;20117;-42
2023/02/19 06:38:28;;;;;;;;;;;;;;;9.02;77.58;100821.67;1940079;74;20167;-42
2023/02/19 06:40:57;;;;;;;;;;;;;;;9.06;77.46;100816.72;1919440;75;20119;-42
2023/02/19 06:43:25;;;;;;;;;;;;;;;9.15;77.40;100816.44;1922445;74;20140;-40
2023/02/19 06:45:53;;;;;;;;;;;;;;;9.23;77.14;100797.79;1929333;74;20121;-40
2023/02/19 06:48:21;;;;;;;;;;;;;;;9.28;77.11;100786.69;1939493;74;20110;-40
2023/02/19 06:50:48;;;;;;;;;;;;;;;9.28;76.63;100788.84;1927476;74;20157;-39
2023/02/19 06:53:16;;;;;;;;;;;;;;;9.35;76.71;100803.09;1932741;74;20143;-39
2023/02/19 06:55:44;;;;;;;;;;;;;;;9.44;76.48;100801.03;1938993;74;20189;-42
2023/02/19 06:58:12;;;;;;;;;;;;;;;9.54;76.00;100788.90;1924955;74;20113;-42
2023/02/19 07:00:40;;;;;;;;;;;;;;;9.65;75.46;100785.45;1926420;74;20118;-38
2023/02/19 07:03:09;;;;;;;;;;;;;;;9.65;74.61;100784.98;1928426;74;20181;-43
2023/02/19 07:05:36;;;;;;;;;;;;;;;9.68;74.58;100793.20;1926340;74;20118;-41
2023/02/19 07:08:04;;;;;;;;;;;;;;;9.61;74.62;100752.30;1925160;74;20142;-39
2023/02/19 07:10:32;;;;;;;;;;;;;;;9.56;74.46;100746.33;1924821;75;20118;-40
2023/02/19 07:13:00;;;;;;;;;;;;;;;9.54;74.40;100742.43;1924843;75;20210;-40
2023/02/19 07:15:27;;;;;;;;;;;;;;;9.55;74.46;100759.91;1924163;74;20110;-40
2023/02/19 07:17:55;;;;;;;;;;;;;;;9.61;74.50;100762.81;1924824;75;20118;-39
2023/02/19 07:20:23;;;;;;;;;;;;;;;9.68;74.41;100763.44;1924904;75;20118;-40
2023/02/19 07:22:51;;;;;;;;;;;;;;;9.76;74.31;100761.41;1946778;73;20116;-40
2023/02/19 07:25:19;;;;;;;;;;;;;;;9.84;73.33;100768.55;1952140;73;20190;-39
2023/02/19 07:27:46;;;;;;;;;;;;;;;9.99;73.30;100769.31;1956481;73;20112;-39
2023/02/19 07:30:14;;;;;;;;;;;;;;;10.16;72.68;100762.14;1956417;73;20195;-44
2023/02/19 07:32:44;;;;;;;;;;;;;;;10.34;72.36;100790.88;1958150;73;20116;-40
2023/02/19 07:35:11;;;;;;;;;;;;;;;10.48;71.75;100782.48;1962164;73;20139;-39
2023/02/19 07:37:40;;;;;;;;;;;;;;;10.56;71.61;100792.71;1961013;73;20402;-39
2023/02/19 07:40:08;;;;;;;;;;;;;;;10.66;71.62;100801.11;1950924;74;20414;-38
2023/02/19 07:42:36;;;;;;;;;;;;;;;10.73;71.82;100800.80;1950708;74;20147;-41
2023/02/19 07:45:04;;;;;;;;;;;;;;;10.67;71.02;100786.57;1950876;74;20117;-39
2023/02/19 07:47:32;;;;;;;;;;;;;;;10.63;71.04;100801.62;1950806;74;20147;-40
2023/02/19 07:49:59;;;;;;;;;;;;;;;10.77;71.08;100802.43;1951145;73;20142;-41
2023/02/19 07:52:27;;;;;;;;;;;;;;;10.93;70.63;100802.67;1952817;73;20156;-42
2023/02/19 07:54:55;;;;;;;;;;;;;;;11.10;70.55;100794.55;1952541;73;20195;-43
2023/02/19 07:57:22;;;;;;;;;;;;;;;11.26;70.28;100802.70;1951459;73;20117;-43
2023/02/19 07:59:50;;;;;;;;;;;;;;;11.37;69.73;100799.16;1951482;74;20116;-44
2023/02/19 08:05:05;;;;;;;;;;;;;;;11.49;68.96;100805.25;1951507;74;20113;-44
2023/02/19 08:07:36;;;;;;;;;;;;;;;11.55;68.57;100801.03;1951572;74;20363;-42
2023/02/19 08:15:50;;;;;;;;;;;;;;;12.02;67.78;100795.12;1951677;73;20398;-44
2023/02/19 08:18:19;;;;;;;;;;;;;;;12.34;67.69;100794.55;1951656;74;20366;-43
2023/02/19 08:20:47;;;;;;;;;;;;;;;12.50;66.86;100789.87;1951645;74;20116;-43
2023/02/19 08:23:15;;;;;;;;;;;;;;;12.44;66.42;100787.52;1949279;72;20104;-44
2023/02/19 08:25:43;;;;;;;;;;;;;;;12.21;66.37;100781.52;1947885;74;20120;-43
2023/02/19 08:28:11;;;;;;;;;;;;;;;11.88;66.51;100794.39;1947921;74;20143;-46
2023/02/19 08:30:40;;;;;;;;;;;;;;;11.71;67.39;100804.33;1948051;74;20136;-43
2023/02/19 08:33:08;;;;;;;;;;;;;;;11.60;67.91;100785.03;1947910;74;20143;-43
2023/02/19 08:35:36;;;;;;;;;;;;;;;11.31;67.74;100782.30;1947870;74;20105;-43
2023/02/19 08:38:05;;;;;;;;;;;;;;;11.14;68.44;100801.41;1948028;74;20395;-44
2023/02/19 08:40:33;;;;;;;;;;;;;;;11.06;68.88;100798.23;1948138;74;20121;-43
2023/02/19 08:43:04;;;;;;;;;;;;;;;10.94;69.44;100796.49;1947786;74;20156;-43
2023/02/19 08:45:32;;;;;;;;;;;;;;;10.84;69.62;100787.69;1947956;74;20154;-43
2023/02/19 08:48:00;;;;;;;;;;;;;;;10.75;70.08;100801.63;1947884;74;20109;-42
2023/02/19 08:50:28;;;;;;;;;;;;;;;10.60;70.34;100805.72;1947896;74;20109;-42
2023/02/19 08:52:55;;;;;;;;;;;;;;;10.45;70.91;100798.38;1947912;74;20116;-43
2023/02/19 08:55:23;;;;;;;;;;;;;;;10.34;71.35;100809.30;1951549;73;20116;-43
2023/02/19 08:57:51;;;;;;;;;;;;;;;10.22;71.82;100814.53;1965116;73;20116;-44
2023/02/19 09:00:20;;;;;;;;;;;;;;;10.06;72.45;100809.42;1965165;73;20166;-42
2023/02/19 09:02:48;;;;;;;;;;;;;;;9.93;72.87;100810.78;1965052;73;20146;-42
2023/02/19 09:05:16;;;;;;;;;;;;;;;9.88;73.13;100808.30;1965133;73;20111;-43
2023/02/19 09:07:44;;;;;;;;;;;;;;;9.86;73.50;100804.86;1965051;73;20142;-42
2023/02/19 09:10:12;;;;;;;;;;;;;;;9.82;73.61;100811.15;1965053;73;20201;-44
2023/02/19 09:12:40;;;;;;;;;;;;;;;9.82;73.62;100804.11;1965047;73;20120;-44
2023/02/19 09:15:08;;;;;;;;;;;;;;;9.82;73.85;100800.63;1965029;73;20143;-43
2023/02/19 09:17:36;;;;;;;;;;;;;;;9.82;73.90;100792.27;1965132;73;20146;-43
2023/02/19 09:20:04;;;;;;;;;;;;;;;9.86;73.85;100773.30;1965060;73;20112;-43
2023/02/19 09:22:32;;;;;;;;;;;;;;;9.90;74.02;100778.84;1964923;72;20100;-43
2023/02/19 09:25:00;;;;;;;;;;;;;;;9.94;74.14;100773.91;1965051;73;20104;-42
2023/02/19 09:27:30;;;;;;;;;;;;;;;9.95;74.16;100775.60;1964990;73;20146;-42
2023/02/19 09:29:57;;;;;;;;;;;;;;;10.10;74.11;100761.03;1965055;73;20116;-43
2023/02/19 09:32:25;;;;;;;;;;;;;;;10.20;73.83;100758.95;1965115;73;20095;-45
2023/02/19 09:34:52;;;;;;;;;;;;;;;10.24;73.72;100759.22;1964986;73;20142;-42
2023/02/19 09:37:22;;;;;;;;;;;;;;;10.25;73.58;100759.61;1964976;73;20179;-42
2023/02/19 09:39:50;;;;;;;;;;;;;;;10.22;73.46;100750.53;1964975;73;20163;-43
2023/02/19 09:42:20;;;;;;;;;;;;;;;10.19;73.52;100746.22;1965003;73;20112;-44
2023/02/19 09:44:49;;;;;;;;;;;;;;;10.18;73.53;100744.52;1965003;73;20146;-42
2023/02/19 09:47:24;;;;;;;;;;;;;;;10.24;73.33;100742.12;1964955;73;20142;-43
2023/02/19 09:49:56;;;;;;;;;;;;;;;10.34;73.23;100730.34;1965163;73;20167;-43
2023/02/19 09:52:25;;;;;;;;;;;;;;;10.35;73.01;100733.39;1963734;73;20393;-42
2023/02/19 09:54:56;;;;;;;;;;;;;;;10.28;72.87;100734.97;1964878;73;20119;-44
2023/02/19 09:57:24;;;;;;;;;;;;;;;10.24;72.74;100736.39;1960815;73;20096;-43
2023/02/19 09:59:53;;;;;;;;;;;;;;;10.29;72.87;100734.91;1960791;73;20116;-45
2023/02/19 10:02:22;;;;;;;;;;;;;;;10.38;72.70;100733.72;1960738;73;20237;-43
2023/02/19 10:04:51;;;;;;;;;;;;;;;10.50;72.58;100721.87;1960812;73;20115;-43
2023/02/19 10:07:20;;;;;;;;;;;;;;;10.69;72.08;100724.16;1960808;73;20197;-45
2023/02/19 10:09:52;;;;;;;;;;;;;;;10.86;71.53;100720.84;1959407;73;20112;-42
2023/02/19 10:12:21;;;;;;;;;;;;;;;10.98;70.73;100718.19;1960952;73;20116;-43
2023/02/19 10:14:50;;;;;;;;;;;;;;;11.26;70.57;100728.44;1960604;73;20158;-42
2023/02/19 10:17:26;;;;;;;;;;;;;;;11.63;69.79;100726.01;1961013;73;20112;-42
2023/02/19 10:19:53;;;;;;;;;;;;;;;11.84;68.88;100718.91;1960812;73;20146;-42
2023/02/19 10:22:21;;;;;;;;;;;;;;;12.23;68.04;100703.10;1960823;73;20146;-44
2023/02/19 10:24:51;;;;;;;;;;;;;;;12.61;67.68;100703.53;1960925;73;20248;-43
2023/02/19 10:27:19;;;;;;;;;;;;;;;12.73;67.92;100698.51;1960922;73;20120;-44
2023/02/19 10:29:48;;;;;;;;;;;;;;;12.86;67.78;100694.80;1960829;73;20116;-45
2023/02/19 10:32:26;;;;;;;;;;;;;;;12.78;66.87;100694.78;1960793;73;20142;-44
2023/02/19 10:34:55;;;;;;;;;;;;;;;12.62;66.71;100696.86;1960809;73;20112;-43
2023/02/19 10:37:23;;;;;;;;;;;;;;;12.65;66.97;100696.72;1950867;73;20117;-46
2023/02/19 10:39:51;;;;;;;;;;;;;;;12.54;67.05;100701.63;1960848;73;20405;-44
2023/02/19 10:42:20;;;;;;;;;;;;;;;12.40;67.56;100704.09;1960924;73;20374;-43
2023/02/19 10:44:49;;;;;;;;;;;;;;;12.18;67.11;100706.88;1960942;73;20374;-44
2023/02/19 10:47:18;;;;;;;;;;;;;;;12.01;67.53;100704.99;1960044;73;20127;-43
2023/02/19 10:49:47;;;;;;;;;;;;;;;11.85;67.92;100699.53;1960938;73;20378;-43
2023/02/19 10:52:23;;;;;;;;;;;;;;;11.78;68.33;100700.27;1960727;73;20412;-43
2023/02/19 10:54:52;;;;;;;;;;;;;;;11.74;68.54;100707.92;1960884;73;20475;-43
2023/02/19 10:57:24;;;;;;;;;;;;;;;11.71;68.41;100697.06;1960949;73;20425;-43
2023/02/19 10:59:51;;;;;;;;;;;;;;;11.67;68.31;100699.89;1960769;73;20225;-46
2023/02/19 11:02:20;;;;;;;;;;;;;;;11.59;68.17;100699.76;1960814;73;20116;-43
2023/02/19 11:04:59;;;;;;;;;;;;;;;11.51;68.21;100696.62;1960710;73;20175;-44
2023/02/19 11:07:26;;;;;;;;;;;;;;;11.42;68.30;100703.61;1913516;73;20116;-43
2023/02/19 11:09:55;;;;;;;;;;;;;;;11.31;68.46;100703.22;1960907;73;20112;-42
2023/02/19 11:12:30;;;;;;;;;;;;;;;11.31;68.71;100700.58;1960904;73;20156;-43
2023/02/19 11:14:59;;;;;;;;;;;;;;;11.16;68.56;100709.52;1960756;73;20112;-45
2023/02/19 11:17:28;;;;;;;;;;;;;;;11.01;68.85;100712.77;1960923;73;20108;-43
2023/02/19 11:19:57;;;;;;;;;;;;;;;10.86;69.16;100698.92;1960791;73;20108;-44
2023/02/19 11:22:30;;;;;;;;;;;;;;;10.80;69.48;100692.13;1959071;73;20155;-43
2023/02/19 11:24:59;;;;;;;;;;;;;;;10.85;69.68;100686.22;1960699;73;20107;-42
2023/02/19 11:27:27;;;;;;;;;;;;;;;10.90;69.70;100691.29;1960357;73;20155;-46
2023/02/19 11:29:56;;;;;;;;;;;;;;;10.90;69.59;100693.48;1960796;73;20104;-45
2023/02/19 11:32:25;;;;;;;;;;;;;;;10.87;69.61;100699.34;1960793;73;20116;-44
2023/02/19 11:34:54;;;;;;;;;;;;;;;10.83;69.59;100698.61;1960984;73;20104;-45
2023/02/19 11:37:22;;;;;;;;;;;;;;;10.76;69.72;100703.25;1955861;73;20116;-43
2023/02/19 11:39:51;;;;;;;;;;;;;;;10.72;69.57;100679.28;1960773;73;20116;-43
2023/02/19 11:42:24;;;;;;;;;;;;;;;10.60;69.49;100685.91;1960710;73;20142;-43
2023/02/19 11:44:56;;;;;;;;;;;;;;;10.56;69.92;100703.19;1960902;73;20102;-43
2023/02/19 11:47:31;;;;;;;;;;;;;;;10.56;69.97;100708.45;1960727;73;20112;-44
2023/02/19 11:50:07;;;;;;;;;;;;;;;10.46;70.06;100683.40;1959747;73;20111;-43
2023/02/19 11:52:43;;;;;;;;;;;;;;;10.42;70.35;100699.77;1959408;73;20116;-43
2023/02/19 11:55:18;;;;;;;;;;;;;;;10.49;70.41;100709.61;1960402;73;20194;-44
2023/02/19 11:57:47;;;;;;;;;;;;;;;10.51;70.45;100715.67;1960456;73;20142;-43
2023/02/19 12:00:16;;;;;;;;;;;;;;;10.51;70.47;100714.36;1960801;73;20112;-42
2023/02/19 12:02:56;;;;;;;;;;;;;;;10.48;70.52;100701.34;1960396;73;20100;-46
2023/02/19 12:05:32;;;;;;;;;;;;;;;10.45;70.60;100723.82;1960761;73;20143;-46
2023/02/19 12:08:18;;;;;;;;;;;;;;;10.43;70.65;100702.34;1960617;73;20218;-43
2023/02/19 12:10:53;;;;;;;;;;;;;;;10.34;70.77;100718.50;1960693;73;20162;-43
2023/02/19 12:13:25;;;;;;;;;;;;;;;10.21;71.06;100731.70;1960674;73;20206;-44
2023/02/19 12:15:57;;;;;;;;;;;;;;;10.18;71.19;100747.16;1960777;73;20141;-44
2023/02/19 12:18:27;;;;;;;;;;;;;;;10.13;71.26;100745.61;1959042;73;20177;-43
2023/02/19 12:20:57;;;;;;;;;;;;;;;10.11;71.45;100741.72;1960846;73;20116;-43
2023/02/19 12:23:29;;;;;;;;;;;;;;;10.03;71.62;100757.79;1960762;73;20108;-44
2023/02/19 12:26:02;;;;;;;;;;;;;;;10.01;71.63;100770.58;1960495;73;20179;-43
2023/02/19 12:28:37;;;;;;;;;;;;;;;9.99;71.78;100765.83;1958471;73;20112;-44
2023/02/19 12:31:23;;;;;;;;;;;;;;;9.95;71.92;100777.39;1958843;73;20103;-43
2023/02/19 12:33:56;;;;;;;;;;;;;;;9.89;72.14;100768.41;1960984;73;20380;-44
2023/02/19 12:36:25;;;;;;;;;;;;;;;9.86;72.40;100768.89;1959267;73;20107;-44
2023/02/19 12:38:54;;;;;;;;;;;;;;;9.83;72.61;100770.77;1960366;73;20108;-44
2023/02/19 12:41:40;;;;;;;;;;;;;;;9.84;72.60;100769.41;1960393;73;20115;-44
2023/02/19 12:44:12;;;;;;;;;;;;;;;9.91;72.69;100766.58;1960793;73;20401;-45
2023/02/19 12:46:41;;;;;;;;;;;;;;;9.95;72.70;100763.77;1960589;73;20146;-45
2023/02/19 12:49:20;;;;;;;;;;;;;;;9.98;72.65;100751.83;1960355;73;20100;-42
2023/02/19 12:51:49;;;;;;;;;;;;;;;9.96;72.75;100751.47;1959879;73;20143;-42
2023/02/19 12:54:28;;;;;;;;;;;;;;;9.96;72.73;100753.66;1960870;73;20366;-43
2023/02/19 12:57:04;;;;;;;;;;;;;;;9.95;72.73;100745.36;1960789;73;20146;-43
2023/02/19 12:59:43;;;;;;;;;;;;;;;9.98;72.75;100740.46;1947304;73;20146;-43
2023/02/19 13:02:12;;;;;;;;;;;;;;;10.02;72.73;100741.59;1960862;73;20147;-43
2023/02/19 13:04:45;;;;;;;;;;;;;;;10.10;72.60;100733.41;1960748;73;20147;-42
2023/02/19 13:07:20;;;;;;;;;;;;;;;10.17;72.34;100726.16;1958766;73;20120;-42
2023/02/19 13:09:49;;;;;;;;;;;;;;;10.25;72.20;100716.19;1960532;73;20195;-43
2023/02/19 13:12:21;;;;;;;;;;;;;;;10.31;71.89;100704.16;1959904;73;20116;-43
2023/02/19 13:14:51;;;;;;;;;;;;;;;10.38;71.56;100686.34;1960954;73;20150;-44
2023/02/19 13:17:30;;;;;;;;;;;;;;;10.49;71.46;100692.03;1960419;73;20119;-42
2023/02/19 13:20:15;;;;;;;;;;;;;;;10.56;71.06;100691.34;1960655;73;20111;-43
2023/02/19 13:25:41;;;;;;;;;;;;;;;10.60;70.61;100711.36;1956963;73;20120;-44
2023/02/19 13:28:10;;;;;;;;;;;;;;;10.65;70.34;100714.68;1928227;72;20109;-42
2023/02/19 13:30:40;;;;;;;;;;;;;;;10.68;70.32;100709.30;1949081;73;20187;-43
2023/02/19 13:33:28;;;;;;;;;;;;;;;10.65;70.04;100689.66;1950586;74;20120;-42
2023/02/19 13:35:59;;;;;;;;;;;;;;;10.59;70.15;100692.08;1950555;74;20108;-42